<?xml version="1.0" encoding="UTF-8" standalone="no" ?>
<gpx xmlns="http://www.topografix.com/GPX/1/1" xmlns:xsi="http://www.w3.org/2001/XMLSchema-instance" xsi:schemaLocation="http://www.topografix.com/GPX/1/1 http://www.topografix.com/GPX/1/1/gpx.xsd" version="1.1" creator="VisuGPX - https://www.visugpx.com">
  <metadata>
    <name>Venelles chemin de l'Oratoire</name>
  </metadata>
  <wpt lat="43.6146" lon="5.46237">
    <ele>445.7</ele>
    <name><![CDATA[xV6oHWk3--.1.jpg]]></name>
    <link href="xV6oHWk3--.1.jpg"></link>
  </wpt>
  <trk>
    <name><![CDATA[Venelles chemin de l'Oratoire_1]]></name>
    <trkseg>
      <trkpt lat="43.6111" lon="5.46807">
        <ele>471</ele>
        <time>2022-05-10T12:00:06Z</time>
      </trkpt>
      <trkpt lat="43.61116" lon="5.46809">
        <ele>467</ele>
        <time>2022-05-10T12:00:29Z</time>
      </trkpt>
      <trkpt lat="43.61128" lon="5.4681">
        <ele>464</ele>
        <time>2022-05-10T12:00:50Z</time>
      </trkpt>
      <trkpt lat="43.61132" lon="5.46813">
        <ele>463</ele>
        <time>2022-05-10T12:01:10Z</time>
      </trkpt>
      <trkpt lat="43.61144" lon="5.46817">
        <ele>459</ele>
        <time>2022-05-10T12:01:30Z</time>
      </trkpt>
      <trkpt lat="43.61162" lon="5.46819">
        <ele>458</ele>
        <time>2022-05-10T12:01:50Z</time>
      </trkpt>
      <trkpt lat="43.6118" lon="5.468">
        <ele>460</ele>
        <time>2022-05-10T12:02:11Z</time>
      </trkpt>
      <trkpt lat="43.61195" lon="5.4678">
        <ele>459</ele>
        <time>2022-05-10T12:02:31Z</time>
      </trkpt>
      <trkpt lat="43.61208" lon="5.46764">
        <ele>460</ele>
        <time>2022-05-10T12:02:52Z</time>
      </trkpt>
      <trkpt lat="43.6122" lon="5.46744">
        <ele>461</ele>
        <time>2022-05-10T12:03:12Z</time>
      </trkpt>
      <trkpt lat="43.61226" lon="5.46732">
        <ele>461</ele>
        <time>2022-05-10T12:03:33Z</time>
      </trkpt>
      <trkpt lat="43.61234" lon="5.46714">
        <ele>461</ele>
        <time>2022-05-10T12:03:53Z</time>
      </trkpt>
      <trkpt lat="43.61242" lon="5.46691">
        <ele>463</ele>
        <time>2022-05-10T12:04:14Z</time>
      </trkpt>
      <trkpt lat="43.61247" lon="5.46667">
        <ele>463</ele>
        <time>2022-05-10T12:04:35Z</time>
      </trkpt>
      <trkpt lat="43.61254" lon="5.46641">
        <ele>462</ele>
        <time>2022-05-10T12:04:56Z</time>
      </trkpt>
      <trkpt lat="43.6126" lon="5.46619">
        <ele>460</ele>
        <time>2022-05-10T12:05:16Z</time>
      </trkpt>
      <trkpt lat="43.61269" lon="5.46597">
        <ele>462</ele>
        <time>2022-05-10T12:05:36Z</time>
      </trkpt>
      <trkpt lat="43.61275" lon="5.46574">
        <ele>465</ele>
        <time>2022-05-10T12:05:57Z</time>
      </trkpt>
      <trkpt lat="43.61282" lon="5.46559">
        <ele>465</ele>
        <time>2022-05-10T12:06:17Z</time>
      </trkpt>
      <trkpt lat="43.6129" lon="5.46538">
        <ele>465</ele>
        <time>2022-05-10T12:06:38Z</time>
      </trkpt>
      <trkpt lat="43.61298" lon="5.46522">
        <ele>468</ele>
        <time>2022-05-10T12:06:58Z</time>
      </trkpt>
      <trkpt lat="43.61308" lon="5.465">
        <ele>470</ele>
        <time>2022-05-10T12:07:19Z</time>
      </trkpt>
      <trkpt lat="43.6132" lon="5.46482">
        <ele>473</ele>
        <time>2022-05-10T12:07:39Z</time>
      </trkpt>
      <trkpt lat="43.61334" lon="5.46462">
        <ele>474</ele>
        <time>2022-05-10T12:08:00Z</time>
      </trkpt>
      <trkpt lat="43.61343" lon="5.46445">
        <ele>473</ele>
        <time>2022-05-10T12:08:20Z</time>
      </trkpt>
      <trkpt lat="43.61343" lon="5.46422">
        <ele>471</ele>
        <time>2022-05-10T12:08:41Z</time>
      </trkpt>
      <trkpt lat="43.61351" lon="5.46403">
        <ele>471</ele>
        <time>2022-05-10T12:09:02Z</time>
      </trkpt>
      <trkpt lat="43.61361" lon="5.46387">
        <ele>471</ele>
        <time>2022-05-10T12:09:22Z</time>
      </trkpt>
      <trkpt lat="43.6137" lon="5.46365">
        <ele>475</ele>
        <time>2022-05-10T12:09:43Z</time>
      </trkpt>
      <trkpt lat="43.61378" lon="5.46349">
        <ele>476</ele>
        <time>2022-05-10T12:10:04Z</time>
      </trkpt>
      <trkpt lat="43.61388" lon="5.46332">
        <ele>477</ele>
        <time>2022-05-10T12:10:25Z</time>
      </trkpt>
      <trkpt lat="43.61404" lon="5.46314">
        <ele>479</ele>
        <time>2022-05-10T12:10:45Z</time>
      </trkpt>
      <trkpt lat="43.61416" lon="5.46297">
        <ele>483</ele>
        <time>2022-05-10T12:11:06Z</time>
      </trkpt>
      <trkpt lat="43.61426" lon="5.46282">
        <ele>486</ele>
        <time>2022-05-10T12:11:27Z</time>
      </trkpt>
      <trkpt lat="43.61436" lon="5.46271">
        <ele>487</ele>
        <time>2022-05-10T12:11:47Z</time>
      </trkpt>
      <trkpt lat="43.61448" lon="5.4626">
        <ele>488</ele>
        <time>2022-05-10T12:12:07Z</time>
      </trkpt>
      <trkpt lat="43.61458" lon="5.46245">
        <ele>493</ele>
        <time>2022-05-10T12:12:28Z</time>
      </trkpt>
      <trkpt lat="43.61459" lon="5.46242">
        <ele>492</ele>
        <time>2022-05-10T12:12:48Z</time>
      </trkpt>
      <trkpt lat="43.61461" lon="5.46242">
        <ele>492</ele>
        <time>2022-05-10T12:13:09Z</time>
      </trkpt>
      <trkpt lat="43.6146" lon="5.46238">
        <ele>494</ele>
        <time>2022-05-10T12:13:30Z</time>
      </trkpt>
      <trkpt lat="43.6146" lon="5.46239">
        <ele>493</ele>
        <time>2022-05-10T12:13:51Z</time>
      </trkpt>
      <trkpt lat="43.61462" lon="5.46239">
        <ele>493</ele>
        <time>2022-05-10T12:14:12Z</time>
      </trkpt>
      <trkpt lat="43.61467" lon="5.46229">
        <ele>496</ele>
        <time>2022-05-10T12:14:32Z</time>
      </trkpt>
      <trkpt lat="43.61479" lon="5.4621">
        <ele>497</ele>
        <time>2022-05-10T12:14:53Z</time>
      </trkpt>
      <trkpt lat="43.61489" lon="5.46194">
        <ele>495</ele>
        <time>2022-05-10T12:15:13Z</time>
      </trkpt>
      <trkpt lat="43.61502" lon="5.46178">
        <ele>496</ele>
        <time>2022-05-10T12:15:34Z</time>
      </trkpt>
      <trkpt lat="43.61515" lon="5.46166">
        <ele>497</ele>
        <time>2022-05-10T12:15:54Z</time>
      </trkpt>
      <trkpt lat="43.61527" lon="5.4615">
        <ele>498</ele>
        <time>2022-05-10T12:16:15Z</time>
      </trkpt>
      <trkpt lat="43.61543" lon="5.46139">
        <ele>496</ele>
        <time>2022-05-10T12:16:35Z</time>
      </trkpt>
      <trkpt lat="43.61556" lon="5.4613">
        <ele>498</ele>
        <time>2022-05-10T12:16:56Z</time>
      </trkpt>
      <trkpt lat="43.6157" lon="5.46115">
        <ele>497</ele>
        <time>2022-05-10T12:17:16Z</time>
      </trkpt>
      <trkpt lat="43.61584" lon="5.46106">
        <ele>501</ele>
        <time>2022-05-10T12:17:37Z</time>
      </trkpt>
      <trkpt lat="43.61595" lon="5.46094">
        <ele>502</ele>
        <time>2022-05-10T12:17:57Z</time>
      </trkpt>
      <trkpt lat="43.61606" lon="5.4608">
        <ele>504</ele>
        <time>2022-05-10T12:18:18Z</time>
      </trkpt>
      <trkpt lat="43.61619" lon="5.46067">
        <ele>504</ele>
        <time>2022-05-10T12:18:39Z</time>
      </trkpt>
      <trkpt lat="43.6163" lon="5.46054">
        <ele>503</ele>
        <time>2022-05-10T12:19:00Z</time>
      </trkpt>
      <trkpt lat="43.61642" lon="5.46042">
        <ele>504</ele>
        <time>2022-05-10T12:19:20Z</time>
      </trkpt>
      <trkpt lat="43.61654" lon="5.4602">
        <ele>505</ele>
        <time>2022-05-10T12:19:40Z</time>
      </trkpt>
      <trkpt lat="43.61666" lon="5.46007">
        <ele>505</ele>
        <time>2022-05-10T12:20:01Z</time>
      </trkpt>
      <trkpt lat="43.61677" lon="5.45994">
        <ele>505</ele>
        <time>2022-05-10T12:20:21Z</time>
      </trkpt>
      <trkpt lat="43.61682" lon="5.45972">
        <ele>502</ele>
        <time>2022-05-10T12:20:42Z</time>
      </trkpt>
      <trkpt lat="43.61689" lon="5.4595">
        <ele>505</ele>
        <time>2022-05-10T12:21:02Z</time>
      </trkpt>
      <trkpt lat="43.61697" lon="5.45934">
        <ele>510</ele>
        <time>2022-05-10T12:21:22Z</time>
      </trkpt>
      <trkpt lat="43.61699" lon="5.45933">
        <ele>509</ele>
        <time>2022-05-10T12:21:43Z</time>
      </trkpt>
      <trkpt lat="43.61707" lon="5.4593">
        <ele>509</ele>
        <time>2022-05-10T12:22:04Z</time>
      </trkpt>
      <trkpt lat="43.61715" lon="5.45917">
        <ele>508</ele>
        <time>2022-05-10T12:22:25Z</time>
      </trkpt>
      <trkpt lat="43.61727" lon="5.45906">
        <ele>510</ele>
        <time>2022-05-10T12:22:45Z</time>
      </trkpt>
      <trkpt lat="43.61738" lon="5.45893">
        <ele>510</ele>
        <time>2022-05-10T12:23:06Z</time>
      </trkpt>
      <trkpt lat="43.61751" lon="5.45889">
        <ele>510</ele>
        <time>2022-05-10T12:23:27Z</time>
      </trkpt>
      <trkpt lat="43.61766" lon="5.45883">
        <ele>512</ele>
        <time>2022-05-10T12:23:48Z</time>
      </trkpt>
      <trkpt lat="43.61776" lon="5.45867">
        <ele>511</ele>
        <time>2022-05-10T12:24:09Z</time>
      </trkpt>
      <trkpt lat="43.61775" lon="5.45843">
        <ele>510</ele>
        <time>2022-05-10T12:24:30Z</time>
      </trkpt>
      <trkpt lat="43.61778" lon="5.45826">
        <ele>509</ele>
        <time>2022-05-10T12:24:51Z</time>
      </trkpt>
      <trkpt lat="43.61786" lon="5.45803">
        <ele>511</ele>
        <time>2022-05-10T12:25:11Z</time>
      </trkpt>
      <trkpt lat="43.61792" lon="5.45785">
        <ele>511</ele>
        <time>2022-05-10T12:25:32Z</time>
      </trkpt>
      <trkpt lat="43.61799" lon="5.45765">
        <ele>512</ele>
        <time>2022-05-10T12:25:53Z</time>
      </trkpt>
      <trkpt lat="43.61803" lon="5.45747">
        <ele>510</ele>
        <time>2022-05-10T12:26:13Z</time>
      </trkpt>
      <trkpt lat="43.61803" lon="5.45718">
        <ele>508</ele>
        <time>2022-05-10T12:26:34Z</time>
      </trkpt>
      <trkpt lat="43.61802" lon="5.45714">
        <ele>508</ele>
        <time>2022-05-10T12:26:55Z</time>
      </trkpt>
      <trkpt lat="43.61802" lon="5.45714">
        <ele>508</ele>
        <time>2022-05-10T12:27:16Z</time>
      </trkpt>
      <trkpt lat="43.61802" lon="5.45704">
        <ele>509</ele>
        <time>2022-05-10T12:27:37Z</time>
      </trkpt>
      <trkpt lat="43.618" lon="5.45686">
        <ele>510</ele>
        <time>2022-05-10T12:27:57Z</time>
      </trkpt>
      <trkpt lat="43.61794" lon="5.45664">
        <ele>510</ele>
        <time>2022-05-10T12:28:17Z</time>
      </trkpt>
      <trkpt lat="43.61788" lon="5.45647">
        <ele>512</ele>
        <time>2022-05-10T12:28:38Z</time>
      </trkpt>
      <trkpt lat="43.61785" lon="5.45626">
        <ele>510</ele>
        <time>2022-05-10T12:28:58Z</time>
      </trkpt>
      <trkpt lat="43.61781" lon="5.45608">
        <ele>511</ele>
        <time>2022-05-10T12:29:18Z</time>
      </trkpt>
      <trkpt lat="43.61778" lon="5.45588">
        <ele>509</ele>
        <time>2022-05-10T12:29:38Z</time>
      </trkpt>
      <trkpt lat="43.61776" lon="5.45562">
        <ele>507</ele>
        <time>2022-05-10T12:29:59Z</time>
      </trkpt>
      <trkpt lat="43.61772" lon="5.45537">
        <ele>507</ele>
        <time>2022-05-10T12:30:20Z</time>
      </trkpt>
      <trkpt lat="43.61769" lon="5.45517">
        <ele>505</ele>
        <time>2022-05-10T12:30:41Z</time>
      </trkpt>
      <trkpt lat="43.61765" lon="5.45495">
        <ele>508</ele>
        <time>2022-05-10T12:31:01Z</time>
      </trkpt>
      <trkpt lat="43.61764" lon="5.45475">
        <ele>509</ele>
        <time>2022-05-10T12:31:22Z</time>
      </trkpt>
      <trkpt lat="43.61761" lon="5.45457">
        <ele>509</ele>
        <time>2022-05-10T12:31:42Z</time>
      </trkpt>
      <trkpt lat="43.61762" lon="5.45425">
        <ele>506</ele>
        <time>2022-05-10T12:32:02Z</time>
      </trkpt>
      <trkpt lat="43.61756" lon="5.45404">
        <ele>507</ele>
        <time>2022-05-10T12:32:23Z</time>
      </trkpt>
      <trkpt lat="43.61753" lon="5.45384">
        <ele>505</ele>
        <time>2022-05-10T12:32:43Z</time>
      </trkpt>
      <trkpt lat="43.61751" lon="5.45365">
        <ele>505</ele>
        <time>2022-05-10T12:33:03Z</time>
      </trkpt>
      <trkpt lat="43.61752" lon="5.45342">
        <ele>505</ele>
        <time>2022-05-10T12:33:24Z</time>
      </trkpt>
      <trkpt lat="43.6175" lon="5.45321">
        <ele>505</ele>
        <time>2022-05-10T12:33:45Z</time>
      </trkpt>
      <trkpt lat="43.61752" lon="5.45298">
        <ele>506</ele>
        <time>2022-05-10T12:34:05Z</time>
      </trkpt>
      <trkpt lat="43.61755" lon="5.45285">
        <ele>503</ele>
        <time>2022-05-10T12:34:25Z</time>
      </trkpt>
      <trkpt lat="43.61765" lon="5.45276">
        <ele>501</ele>
        <time>2022-05-10T12:34:46Z</time>
      </trkpt>
      <trkpt lat="43.61772" lon="5.45271">
        <ele>498</ele>
        <time>2022-05-10T12:35:06Z</time>
      </trkpt>
      <trkpt lat="43.61784" lon="5.45261">
        <ele>490</ele>
        <time>2022-05-10T12:35:27Z</time>
      </trkpt>
      <trkpt lat="43.61793" lon="5.45251">
        <ele>489</ele>
        <time>2022-05-10T12:35:48Z</time>
      </trkpt>
      <trkpt lat="43.61804" lon="5.45245">
        <ele>489</ele>
        <time>2022-05-10T12:36:08Z</time>
      </trkpt>
      <trkpt lat="43.61809" lon="5.45244">
        <ele>486</ele>
        <time>2022-05-10T12:36:28Z</time>
      </trkpt>
      <trkpt lat="43.61814" lon="5.45244">
        <ele>485</ele>
        <time>2022-05-10T12:36:48Z</time>
      </trkpt>
      <trkpt lat="43.61828" lon="5.45238">
        <ele>481</ele>
        <time>2022-05-10T12:37:09Z</time>
      </trkpt>
      <trkpt lat="43.6184" lon="5.45236">
        <ele>478</ele>
        <time>2022-05-10T12:37:30Z</time>
      </trkpt>
      <trkpt lat="43.6185" lon="5.45233">
        <ele>476</ele>
        <time>2022-05-10T12:37:51Z</time>
      </trkpt>
      <trkpt lat="43.61866" lon="5.4523">
        <ele>473</ele>
        <time>2022-05-10T12:38:11Z</time>
      </trkpt>
      <trkpt lat="43.61881" lon="5.45229">
        <ele>475</ele>
        <time>2022-05-10T12:38:31Z</time>
      </trkpt>
      <trkpt lat="43.61893" lon="5.45228">
        <ele>473</ele>
        <time>2022-05-10T12:38:51Z</time>
      </trkpt>
      <trkpt lat="43.61898" lon="5.4523">
        <ele>472</ele>
        <time>2022-05-10T12:39:12Z</time>
      </trkpt>
      <trkpt lat="43.61905" lon="5.45232">
        <ele>470</ele>
        <time>2022-05-10T12:39:32Z</time>
      </trkpt>
      <trkpt lat="43.61906" lon="5.45232">
        <ele>470</ele>
        <time>2022-05-10T12:39:53Z</time>
      </trkpt>
      <trkpt lat="43.61919" lon="5.45226">
        <ele>472</ele>
        <time>2022-05-10T12:40:13Z</time>
      </trkpt>
      <trkpt lat="43.61934" lon="5.45221">
        <ele>473</ele>
        <time>2022-05-10T12:40:34Z</time>
      </trkpt>
      <trkpt lat="43.61944" lon="5.45214">
        <ele>473</ele>
        <time>2022-05-10T12:40:54Z</time>
      </trkpt>
      <trkpt lat="43.6196" lon="5.45209">
        <ele>474</ele>
        <time>2022-05-10T12:41:15Z</time>
      </trkpt>
      <trkpt lat="43.61974" lon="5.45209">
        <ele>473</ele>
        <time>2022-05-10T12:41:35Z</time>
      </trkpt>
      <trkpt lat="43.61989" lon="5.452">
        <ele>476</ele>
        <time>2022-05-10T12:41:55Z</time>
      </trkpt>
      <trkpt lat="43.62007" lon="5.45193">
        <ele>474</ele>
        <time>2022-05-10T12:42:16Z</time>
      </trkpt>
      <trkpt lat="43.62019" lon="5.45188">
        <ele>474</ele>
        <time>2022-05-10T12:42:37Z</time>
      </trkpt>
      <trkpt lat="43.6203" lon="5.45181">
        <ele>473</ele>
        <time>2022-05-10T12:42:57Z</time>
      </trkpt>
      <trkpt lat="43.62047" lon="5.45169">
        <ele>472</ele>
        <time>2022-05-10T12:43:18Z</time>
      </trkpt>
      <trkpt lat="43.62059" lon="5.45159">
        <ele>473</ele>
        <time>2022-05-10T12:43:38Z</time>
      </trkpt>
      <trkpt lat="43.62073" lon="5.45149">
        <ele>474</ele>
        <time>2022-05-10T12:43:59Z</time>
      </trkpt>
      <trkpt lat="43.62089" lon="5.45139">
        <ele>478</ele>
        <time>2022-05-10T12:44:20Z</time>
      </trkpt>
      <trkpt lat="43.62103" lon="5.4513">
        <ele>476</ele>
        <time>2022-05-10T12:44:40Z</time>
      </trkpt>
      <trkpt lat="43.62122" lon="5.45125">
        <ele>476</ele>
        <time>2022-05-10T12:45:01Z</time>
      </trkpt>
      <trkpt lat="43.62143" lon="5.4512">
        <ele>474</ele>
        <time>2022-05-10T12:45:21Z</time>
      </trkpt>
      <trkpt lat="43.62159" lon="5.45109">
        <ele>475</ele>
        <time>2022-05-10T12:45:42Z</time>
      </trkpt>
      <trkpt lat="43.62173" lon="5.45097">
        <ele>473</ele>
        <time>2022-05-10T12:46:02Z</time>
      </trkpt>
      <trkpt lat="43.62189" lon="5.45092">
        <ele>474</ele>
        <time>2022-05-10T12:46:23Z</time>
      </trkpt>
      <trkpt lat="43.62207" lon="5.45081">
        <ele>473</ele>
        <time>2022-05-10T12:46:43Z</time>
      </trkpt>
      <trkpt lat="43.62225" lon="5.45076">
        <ele>474</ele>
        <time>2022-05-10T12:47:04Z</time>
      </trkpt>
      <trkpt lat="43.62235" lon="5.45073">
        <ele>472</ele>
        <time>2022-05-10T12:47:24Z</time>
      </trkpt>
      <trkpt lat="43.62236" lon="5.45071">
        <ele>472</ele>
        <time>2022-05-10T12:47:45Z</time>
      </trkpt>
      <trkpt lat="43.62236" lon="5.45071">
        <ele>472</ele>
        <time>2022-05-10T12:48:05Z</time>
      </trkpt>
      <trkpt lat="43.62237" lon="5.45067">
        <ele>472</ele>
        <time>2022-05-10T12:48:25Z</time>
      </trkpt>
      <trkpt lat="43.6224" lon="5.45069">
        <ele>469</ele>
        <time>2022-05-10T12:48:46Z</time>
      </trkpt>
      <trkpt lat="43.6224" lon="5.45069">
        <ele>470</ele>
        <time>2022-05-10T12:49:06Z</time>
      </trkpt>
      <trkpt lat="43.6224" lon="5.45073">
        <ele>471</ele>
        <time>2022-05-10T12:49:27Z</time>
      </trkpt>
      <trkpt lat="43.6224" lon="5.45073">
        <ele>471</ele>
        <time>2022-05-10T12:49:48Z</time>
      </trkpt>
      <trkpt lat="43.6224" lon="5.45073">
        <ele>471</ele>
        <time>2022-05-10T12:50:08Z</time>
      </trkpt>
      <trkpt lat="43.6224" lon="5.45073">
        <ele>471</ele>
        <time>2022-05-10T12:50:29Z</time>
      </trkpt>
      <trkpt lat="43.6224" lon="5.45073">
        <ele>471</ele>
        <time>2022-05-10T12:50:49Z</time>
      </trkpt>
      <trkpt lat="43.6224" lon="5.45073">
        <ele>471</ele>
        <time>2022-05-10T12:51:09Z</time>
      </trkpt>
      <trkpt lat="43.62239" lon="5.45072">
        <ele>470</ele>
        <time>2022-05-10T12:51:29Z</time>
      </trkpt>
      <trkpt lat="43.62239" lon="5.45072">
        <ele>470</ele>
        <time>2022-05-10T12:51:50Z</time>
      </trkpt>
      <trkpt lat="43.62238" lon="5.45072">
        <ele>471</ele>
        <time>2022-05-10T12:52:10Z</time>
      </trkpt>
      <trkpt lat="43.62238" lon="5.45072">
        <ele>471</ele>
        <time>2022-05-10T12:52:31Z</time>
      </trkpt>
      <trkpt lat="43.62238" lon="5.45072">
        <ele>471</ele>
        <time>2022-05-10T12:52:51Z</time>
      </trkpt>
      <trkpt lat="43.62238" lon="5.45072">
        <ele>472</ele>
        <time>2022-05-10T12:53:12Z</time>
      </trkpt>
      <trkpt lat="43.62245" lon="5.45069">
        <ele>472</ele>
        <time>2022-05-10T12:53:32Z</time>
      </trkpt>
      <trkpt lat="43.6226" lon="5.45069">
        <ele>470</ele>
        <time>2022-05-10T12:53:52Z</time>
      </trkpt>
      <trkpt lat="43.62278" lon="5.45069">
        <ele>466</ele>
        <time>2022-05-10T12:54:13Z</time>
      </trkpt>
      <trkpt lat="43.62295" lon="5.45072">
        <ele>467</ele>
        <time>2022-05-10T12:54:33Z</time>
      </trkpt>
      <trkpt lat="43.62313" lon="5.45071">
        <ele>464</ele>
        <time>2022-05-10T12:54:54Z</time>
      </trkpt>
      <trkpt lat="43.62328" lon="5.45064">
        <ele>464</ele>
        <time>2022-05-10T12:55:14Z</time>
      </trkpt>
      <trkpt lat="43.62344" lon="5.45063">
        <ele>465</ele>
        <time>2022-05-10T12:55:35Z</time>
      </trkpt>
      <trkpt lat="43.62361" lon="5.45058">
        <ele>465</ele>
        <time>2022-05-10T12:55:56Z</time>
      </trkpt>
      <trkpt lat="43.62375" lon="5.45053">
        <ele>468</ele>
        <time>2022-05-10T12:56:16Z</time>
      </trkpt>
      <trkpt lat="43.62394" lon="5.45042">
        <ele>465</ele>
        <time>2022-05-10T12:56:37Z</time>
      </trkpt>
      <trkpt lat="43.6241" lon="5.45033">
        <ele>467</ele>
        <time>2022-05-10T12:56:57Z</time>
      </trkpt>
      <trkpt lat="43.62427" lon="5.45022">
        <ele>471</ele>
        <time>2022-05-10T12:57:18Z</time>
      </trkpt>
      <trkpt lat="43.6244" lon="5.45008">
        <ele>469</ele>
        <time>2022-05-10T12:57:38Z</time>
      </trkpt>
      <trkpt lat="43.62456" lon="5.44993">
        <ele>471</ele>
        <time>2022-05-10T12:57:59Z</time>
      </trkpt>
      <trkpt lat="43.62474" lon="5.44988">
        <ele>473</ele>
        <time>2022-05-10T12:58:19Z</time>
      </trkpt>
      <trkpt lat="43.62471" lon="5.44993">
        <ele>473</ele>
        <time>2022-05-10T12:58:40Z</time>
      </trkpt>
      <trkpt lat="43.62483" lon="5.45007">
        <ele>474</ele>
        <time>2022-05-10T12:59:01Z</time>
      </trkpt>
      <trkpt lat="43.62481" lon="5.45014">
        <ele>473</ele>
        <time>2022-05-10T12:59:22Z</time>
      </trkpt>
      <trkpt lat="43.62479" lon="5.45014">
        <ele>475</ele>
        <time>2022-05-10T12:59:42Z</time>
      </trkpt>
      <trkpt lat="43.62478" lon="5.45013">
        <ele>474</ele>
        <time>2022-05-10T13:00:04Z</time>
      </trkpt>
      <trkpt lat="43.62478" lon="5.45013">
        <ele>474</ele>
        <time>2022-05-10T13:00:24Z</time>
      </trkpt>
      <trkpt lat="43.6248" lon="5.45013">
        <ele>475</ele>
        <time>2022-05-10T13:00:44Z</time>
      </trkpt>
      <trkpt lat="43.6248" lon="5.45004">
        <ele>475</ele>
        <time>2022-05-10T13:01:05Z</time>
      </trkpt>
      <trkpt lat="43.62482" lon="5.45001">
        <ele>473</ele>
        <time>2022-05-10T13:01:25Z</time>
      </trkpt>
      <trkpt lat="43.62482" lon="5.45001">
        <ele>473</ele>
        <time>2022-05-10T13:01:46Z</time>
      </trkpt>
      <trkpt lat="43.62485" lon="5.44986">
        <ele>471</ele>
        <time>2022-05-10T13:02:06Z</time>
      </trkpt>
      <trkpt lat="43.62481" lon="5.44982">
        <ele>472</ele>
        <time>2022-05-10T13:02:27Z</time>
      </trkpt>
      <trkpt lat="43.62481" lon="5.44981">
        <ele>473</ele>
        <time>2022-05-10T13:02:47Z</time>
      </trkpt>
      <trkpt lat="43.62481" lon="5.44981">
        <ele>474</ele>
        <time>2022-05-10T13:03:07Z</time>
      </trkpt>
      <trkpt lat="43.6248" lon="5.44984">
        <ele>471</ele>
        <time>2022-05-10T13:03:27Z</time>
      </trkpt>
      <trkpt lat="43.62471" lon="5.44988">
        <ele>470</ele>
        <time>2022-05-10T13:03:47Z</time>
      </trkpt>
      <trkpt lat="43.62454" lon="5.44995">
        <ele>471</ele>
        <time>2022-05-10T13:04:08Z</time>
      </trkpt>
      <trkpt lat="43.62437" lon="5.45006">
        <ele>471</ele>
        <time>2022-05-10T13:04:28Z</time>
      </trkpt>
      <trkpt lat="43.62424" lon="5.45023">
        <ele>471</ele>
        <time>2022-05-10T13:04:49Z</time>
      </trkpt>
      <trkpt lat="43.62408" lon="5.45033">
        <ele>467</ele>
        <time>2022-05-10T13:05:09Z</time>
      </trkpt>
      <trkpt lat="43.62392" lon="5.45044">
        <ele>464</ele>
        <time>2022-05-10T13:05:30Z</time>
      </trkpt>
      <trkpt lat="43.62375" lon="5.45054">
        <ele>465</ele>
        <time>2022-05-10T13:05:50Z</time>
      </trkpt>
      <trkpt lat="43.62356" lon="5.45061">
        <ele>465</ele>
        <time>2022-05-10T13:06:11Z</time>
      </trkpt>
      <trkpt lat="43.62338" lon="5.45067">
        <ele>467</ele>
        <time>2022-05-10T13:06:31Z</time>
      </trkpt>
      <trkpt lat="43.62322" lon="5.45069">
        <ele>463</ele>
        <time>2022-05-10T13:06:52Z</time>
      </trkpt>
      <trkpt lat="43.62303" lon="5.45071">
        <ele>465</ele>
        <time>2022-05-10T13:07:12Z</time>
      </trkpt>
      <trkpt lat="43.62285" lon="5.45071">
        <ele>466</ele>
        <time>2022-05-10T13:07:33Z</time>
      </trkpt>
      <trkpt lat="43.6227" lon="5.45068">
        <ele>469</ele>
        <time>2022-05-10T13:07:54Z</time>
      </trkpt>
      <trkpt lat="43.62253" lon="5.4507">
        <ele>472</ele>
        <time>2022-05-10T13:08:14Z</time>
      </trkpt>
      <trkpt lat="43.62233" lon="5.45075">
        <ele>473</ele>
        <time>2022-05-10T13:08:35Z</time>
      </trkpt>
      <trkpt lat="43.62213" lon="5.45081">
        <ele>474</ele>
        <time>2022-05-10T13:08:55Z</time>
      </trkpt>
      <trkpt lat="43.62193" lon="5.45087">
        <ele>473</ele>
        <time>2022-05-10T13:09:16Z</time>
      </trkpt>
      <trkpt lat="43.62178" lon="5.45098">
        <ele>471</ele>
        <time>2022-05-10T13:09:36Z</time>
      </trkpt>
      <trkpt lat="43.62162" lon="5.45108">
        <ele>470</ele>
        <time>2022-05-10T13:09:57Z</time>
      </trkpt>
      <trkpt lat="43.62146" lon="5.45119">
        <ele>475</ele>
        <time>2022-05-10T13:10:17Z</time>
      </trkpt>
      <trkpt lat="43.62126" lon="5.45127">
        <ele>479</ele>
        <time>2022-05-10T13:10:38Z</time>
      </trkpt>
      <trkpt lat="43.6211" lon="5.45132">
        <ele>479</ele>
        <time>2022-05-10T13:10:58Z</time>
      </trkpt>
      <trkpt lat="43.62092" lon="5.45142">
        <ele>478</ele>
        <time>2022-05-10T13:11:19Z</time>
      </trkpt>
      <trkpt lat="43.62072" lon="5.45152">
        <ele>477</ele>
        <time>2022-05-10T13:11:40Z</time>
      </trkpt>
      <trkpt lat="43.62062" lon="5.45156">
        <ele>480</ele>
        <time>2022-05-10T13:12:00Z</time>
      </trkpt>
      <trkpt lat="43.62063" lon="5.45155">
        <ele>478</ele>
        <time>2022-05-10T13:12:20Z</time>
      </trkpt>
      <trkpt lat="43.62063" lon="5.45155">
        <ele>478</ele>
        <time>2022-05-10T13:12:40Z</time>
      </trkpt>
      <trkpt lat="43.62054" lon="5.45161">
        <ele>477</ele>
        <time>2022-05-10T13:13:01Z</time>
      </trkpt>
      <trkpt lat="43.6204" lon="5.45176">
        <ele>474</ele>
        <time>2022-05-10T13:13:21Z</time>
      </trkpt>
      <trkpt lat="43.62025" lon="5.45184">
        <ele>474</ele>
        <time>2022-05-10T13:13:42Z</time>
      </trkpt>
      <trkpt lat="43.62011" lon="5.45192">
        <ele>476</ele>
        <time>2022-05-10T13:14:03Z</time>
      </trkpt>
      <trkpt lat="43.61994" lon="5.45196">
        <ele>475</ele>
        <time>2022-05-10T13:14:24Z</time>
      </trkpt>
      <trkpt lat="43.61979" lon="5.45205">
        <ele>477</ele>
        <time>2022-05-10T13:14:44Z</time>
      </trkpt>
      <trkpt lat="43.61962" lon="5.4521">
        <ele>477</ele>
        <time>2022-05-10T13:15:05Z</time>
      </trkpt>
      <trkpt lat="43.61945" lon="5.45213">
        <ele>476</ele>
        <time>2022-05-10T13:15:25Z</time>
      </trkpt>
      <trkpt lat="43.61929" lon="5.45224">
        <ele>473</ele>
        <time>2022-05-10T13:15:46Z</time>
      </trkpt>
      <trkpt lat="43.61915" lon="5.4523">
        <ele>473</ele>
        <time>2022-05-10T13:16:06Z</time>
      </trkpt>
      <trkpt lat="43.61898" lon="5.45241">
        <ele>473</ele>
        <time>2022-05-10T13:16:27Z</time>
      </trkpt>
      <trkpt lat="43.61878" lon="5.4525">
        <ele>471</ele>
        <time>2022-05-10T13:16:48Z</time>
      </trkpt>
      <trkpt lat="43.61859" lon="5.45255">
        <ele>472</ele>
        <time>2022-05-10T13:17:08Z</time>
      </trkpt>
      <trkpt lat="43.61846" lon="5.45269">
        <ele>472</ele>
        <time>2022-05-10T13:17:29Z</time>
      </trkpt>
      <trkpt lat="43.61838" lon="5.4529">
        <ele>470</ele>
        <time>2022-05-10T13:17:49Z</time>
      </trkpt>
      <trkpt lat="43.61833" lon="5.4532">
        <ele>471</ele>
        <time>2022-05-10T13:18:10Z</time>
      </trkpt>
      <trkpt lat="43.61836" lon="5.45345">
        <ele>471</ele>
        <time>2022-05-10T13:18:30Z</time>
      </trkpt>
      <trkpt lat="43.61838" lon="5.4537">
        <ele>468</ele>
        <time>2022-05-10T13:18:51Z</time>
      </trkpt>
      <trkpt lat="43.61842" lon="5.45395">
        <ele>468</ele>
        <time>2022-05-10T13:19:11Z</time>
      </trkpt>
      <trkpt lat="43.61846" lon="5.45421">
        <ele>467</ele>
        <time>2022-05-10T13:19:32Z</time>
      </trkpt>
      <trkpt lat="43.6185" lon="5.45448">
        <ele>467</ele>
        <time>2022-05-10T13:19:53Z</time>
      </trkpt>
      <trkpt lat="43.61852" lon="5.45474">
        <ele>465</ele>
        <time>2022-05-10T13:20:13Z</time>
      </trkpt>
      <trkpt lat="43.61854" lon="5.45501">
        <ele>465</ele>
        <time>2022-05-10T13:20:34Z</time>
      </trkpt>
      <trkpt lat="43.61852" lon="5.45522">
        <ele>467</ele>
        <time>2022-05-10T13:20:54Z</time>
      </trkpt>
      <trkpt lat="43.61856" lon="5.45547">
        <ele>468</ele>
        <time>2022-05-10T13:21:14Z</time>
      </trkpt>
      <trkpt lat="43.61861" lon="5.45564">
        <ele>469</ele>
        <time>2022-05-10T13:21:35Z</time>
      </trkpt>
      <trkpt lat="43.6186" lon="5.45565">
        <ele>469</ele>
        <time>2022-05-10T13:21:55Z</time>
      </trkpt>
      <trkpt lat="43.61863" lon="5.45585">
        <ele>467</ele>
        <time>2022-05-10T13:22:15Z</time>
      </trkpt>
      <trkpt lat="43.61865" lon="5.4561">
        <ele>467</ele>
        <time>2022-05-10T13:22:36Z</time>
      </trkpt>
      <trkpt lat="43.61867" lon="5.45626">
        <ele>471</ele>
        <time>2022-05-10T13:22:56Z</time>
      </trkpt>
      <trkpt lat="43.61871" lon="5.45648">
        <ele>471</ele>
        <time>2022-05-10T13:23:17Z</time>
      </trkpt>
      <trkpt lat="43.61875" lon="5.4567">
        <ele>471</ele>
        <time>2022-05-10T13:23:38Z</time>
      </trkpt>
      <trkpt lat="43.61879" lon="5.45691">
        <ele>472</ele>
        <time>2022-05-10T13:23:59Z</time>
      </trkpt>
      <trkpt lat="43.61881" lon="5.45703">
        <ele>475</ele>
        <time>2022-05-10T13:24:20Z</time>
      </trkpt>
      <trkpt lat="43.6188" lon="5.45705">
        <ele>475</ele>
        <time>2022-05-10T13:24:40Z</time>
      </trkpt>
      <trkpt lat="43.61872" lon="5.45711">
        <ele>476</ele>
        <time>2022-05-10T13:25:01Z</time>
      </trkpt>
      <trkpt lat="43.61875" lon="5.45709">
        <ele>476</ele>
        <time>2022-05-10T13:25:21Z</time>
      </trkpt>
      <trkpt lat="43.61876" lon="5.45706">
        <ele>475</ele>
        <time>2022-05-10T13:25:42Z</time>
      </trkpt>
      <trkpt lat="43.6188" lon="5.45706">
        <ele>475</ele>
        <time>2022-05-10T13:26:02Z</time>
      </trkpt>
      <trkpt lat="43.6188" lon="5.45709">
        <ele>476</ele>
        <time>2022-05-10T13:26:23Z</time>
      </trkpt>
      <trkpt lat="43.61882" lon="5.45729">
        <ele>476</ele>
        <time>2022-05-10T13:26:43Z</time>
      </trkpt>
      <trkpt lat="43.61885" lon="5.4575">
        <ele>479</ele>
        <time>2022-05-10T13:27:04Z</time>
      </trkpt>
      <trkpt lat="43.61892" lon="5.45771">
        <ele>478</ele>
        <time>2022-05-10T13:27:24Z</time>
      </trkpt>
      <trkpt lat="43.619" lon="5.45798">
        <ele>479</ele>
        <time>2022-05-10T13:27:45Z</time>
      </trkpt>
      <trkpt lat="43.61901" lon="5.45822">
        <ele>479</ele>
        <time>2022-05-10T13:28:06Z</time>
      </trkpt>
      <trkpt lat="43.61902" lon="5.45846">
        <ele>477</ele>
        <time>2022-05-10T13:28:26Z</time>
      </trkpt>
      <trkpt lat="43.61901" lon="5.45876">
        <ele>480</ele>
        <time>2022-05-10T13:28:47Z</time>
      </trkpt>
      <trkpt lat="43.61895" lon="5.45899">
        <ele>480</ele>
        <time>2022-05-10T13:29:07Z</time>
      </trkpt>
      <trkpt lat="43.61882" lon="5.45919">
        <ele>481</ele>
        <time>2022-05-10T13:29:28Z</time>
      </trkpt>
      <trkpt lat="43.61874" lon="5.45941">
        <ele>479</ele>
        <time>2022-05-10T13:29:48Z</time>
      </trkpt>
      <trkpt lat="43.61862" lon="5.45959">
        <ele>477</ele>
        <time>2022-05-10T13:30:08Z</time>
      </trkpt>
      <trkpt lat="43.61848" lon="5.45974">
        <ele>476</ele>
        <time>2022-05-10T13:30:29Z</time>
      </trkpt>
      <trkpt lat="43.61834" lon="5.45991">
        <ele>476</ele>
        <time>2022-05-10T13:30:49Z</time>
      </trkpt>
      <trkpt lat="43.61819" lon="5.46014">
        <ele>479</ele>
        <time>2022-05-10T13:31:10Z</time>
      </trkpt>
      <trkpt lat="43.61802" lon="5.4603">
        <ele>480</ele>
        <time>2022-05-10T13:31:31Z</time>
      </trkpt>
      <trkpt lat="43.61784" lon="5.46037">
        <ele>479</ele>
        <time>2022-05-10T13:31:52Z</time>
      </trkpt>
      <trkpt lat="43.61767" lon="5.46052">
        <ele>476</ele>
        <time>2022-05-10T13:32:13Z</time>
      </trkpt>
      <trkpt lat="43.61753" lon="5.46067">
        <ele>476</ele>
        <time>2022-05-10T13:32:33Z</time>
      </trkpt>
      <trkpt lat="43.61736" lon="5.46078">
        <ele>473</ele>
        <time>2022-05-10T13:32:54Z</time>
      </trkpt>
      <trkpt lat="43.61723" lon="5.46091">
        <ele>474</ele>
        <time>2022-05-10T13:33:14Z</time>
      </trkpt>
      <trkpt lat="43.61706" lon="5.461">
        <ele>474</ele>
        <time>2022-05-10T13:33:35Z</time>
      </trkpt>
      <trkpt lat="43.61693" lon="5.46114">
        <ele>474</ele>
        <time>2022-05-10T13:33:55Z</time>
      </trkpt>
      <trkpt lat="43.61677" lon="5.46131">
        <ele>474</ele>
        <time>2022-05-10T13:34:16Z</time>
      </trkpt>
      <trkpt lat="43.6166" lon="5.46143">
        <ele>472</ele>
        <time>2022-05-10T13:34:36Z</time>
      </trkpt>
      <trkpt lat="43.61642" lon="5.46159">
        <ele>472</ele>
        <time>2022-05-10T13:34:57Z</time>
      </trkpt>
      <trkpt lat="43.61627" lon="5.46173">
        <ele>472</ele>
        <time>2022-05-10T13:35:17Z</time>
      </trkpt>
      <trkpt lat="43.61612" lon="5.46189">
        <ele>472</ele>
        <time>2022-05-10T13:35:38Z</time>
      </trkpt>
      <trkpt lat="43.61596" lon="5.46204">
        <ele>471</ele>
        <time>2022-05-10T13:35:58Z</time>
      </trkpt>
      <trkpt lat="43.6158" lon="5.46213">
        <ele>469</ele>
        <time>2022-05-10T13:36:18Z</time>
      </trkpt>
      <trkpt lat="43.61563" lon="5.46217">
        <ele>471</ele>
        <time>2022-05-10T13:36:38Z</time>
      </trkpt>
      <trkpt lat="43.61551" lon="5.4623">
        <ele>470</ele>
        <time>2022-05-10T13:36:58Z</time>
      </trkpt>
      <trkpt lat="43.61551" lon="5.4623">
        <ele>468</ele>
        <time>2022-05-10T13:37:19Z</time>
      </trkpt>
      <trkpt lat="43.61545" lon="5.46245">
        <ele>469</ele>
        <time>2022-05-10T13:37:39Z</time>
      </trkpt>
      <trkpt lat="43.61531" lon="5.46263">
        <ele>470</ele>
        <time>2022-05-10T13:38:00Z</time>
      </trkpt>
      <trkpt lat="43.61514" lon="5.46275">
        <ele>470</ele>
        <time>2022-05-10T13:38:20Z</time>
      </trkpt>
      <trkpt lat="43.61499" lon="5.46289">
        <ele>468</ele>
        <time>2022-05-10T13:38:41Z</time>
      </trkpt>
      <trkpt lat="43.6149" lon="5.46307">
        <ele>468</ele>
        <time>2022-05-10T13:39:01Z</time>
      </trkpt>
      <trkpt lat="43.61479" lon="5.46318">
        <ele>469</ele>
        <time>2022-05-10T13:39:22Z</time>
      </trkpt>
      <trkpt lat="43.6147" lon="5.46318">
        <ele>469</ele>
        <time>2022-05-10T13:39:43Z</time>
      </trkpt>
      <trkpt lat="43.61455" lon="5.46333">
        <ele>467</ele>
        <time>2022-05-10T13:40:03Z</time>
      </trkpt>
      <trkpt lat="43.61441" lon="5.46351">
        <ele>466</ele>
        <time>2022-05-10T13:40:24Z</time>
      </trkpt>
      <trkpt lat="43.61433" lon="5.46372">
        <ele>464</ele>
        <time>2022-05-10T13:40:44Z</time>
      </trkpt>
      <trkpt lat="43.61425" lon="5.46395">
        <ele>464</ele>
        <time>2022-05-10T13:41:05Z</time>
      </trkpt>
      <trkpt lat="43.61415" lon="5.46417">
        <ele>459</ele>
        <time>2022-05-10T13:41:25Z</time>
      </trkpt>
      <trkpt lat="43.61405" lon="5.46438">
        <ele>457</ele>
        <time>2022-05-10T13:41:46Z</time>
      </trkpt>
      <trkpt lat="43.61397" lon="5.4646">
        <ele>455</ele>
        <time>2022-05-10T13:42:07Z</time>
      </trkpt>
      <trkpt lat="43.61388" lon="5.46482">
        <ele>456</ele>
        <time>2022-05-10T13:42:27Z</time>
      </trkpt>
      <trkpt lat="43.61378" lon="5.46505">
        <ele>457</ele>
        <time>2022-05-10T13:42:47Z</time>
      </trkpt>
      <trkpt lat="43.61364" lon="5.46521">
        <ele>454</ele>
        <time>2022-05-10T13:43:08Z</time>
      </trkpt>
      <trkpt lat="43.61353" lon="5.4654">
        <ele>451</ele>
        <time>2022-05-10T13:43:28Z</time>
      </trkpt>
      <trkpt lat="43.61343" lon="5.46561">
        <ele>451</ele>
        <time>2022-05-10T13:43:48Z</time>
      </trkpt>
      <trkpt lat="43.61329" lon="5.46583">
        <ele>453</ele>
        <time>2022-05-10T13:44:09Z</time>
      </trkpt>
      <trkpt lat="43.61317" lon="5.46599">
        <ele>453</ele>
        <time>2022-05-10T13:44:29Z</time>
      </trkpt>
      <trkpt lat="43.61304" lon="5.46619">
        <ele>454</ele>
        <time>2022-05-10T13:44:49Z</time>
      </trkpt>
      <trkpt lat="43.61292" lon="5.46636">
        <ele>453</ele>
        <time>2022-05-10T13:45:09Z</time>
      </trkpt>
      <trkpt lat="43.61286" lon="5.46659">
        <ele>451</ele>
        <time>2022-05-10T13:45:29Z</time>
      </trkpt>
      <trkpt lat="43.61279" lon="5.46675">
        <ele>452</ele>
        <time>2022-05-10T13:45:50Z</time>
      </trkpt>
      <trkpt lat="43.61277" lon="5.46674">
        <ele>450</ele>
        <time>2022-05-10T13:46:10Z</time>
      </trkpt>
      <trkpt lat="43.61276" lon="5.46688">
        <ele>451</ele>
        <time>2022-05-10T13:46:30Z</time>
      </trkpt>
      <trkpt lat="43.61264" lon="5.46704">
        <ele>455</ele>
        <time>2022-05-10T13:46:50Z</time>
      </trkpt>
      <trkpt lat="43.61253" lon="5.46724">
        <ele>453</ele>
        <time>2022-05-10T13:47:11Z</time>
      </trkpt>
      <trkpt lat="43.61245" lon="5.46748">
        <ele>446</ele>
        <time>2022-05-10T13:47:32Z</time>
      </trkpt>
      <trkpt lat="43.61235" lon="5.46764">
        <ele>450</ele>
        <time>2022-05-10T13:47:53Z</time>
      </trkpt>
      <trkpt lat="43.61222" lon="5.46781">
        <ele>449</ele>
        <time>2022-05-10T13:48:13Z</time>
      </trkpt>
      <trkpt lat="43.61207" lon="5.46798">
        <ele>453</ele>
        <time>2022-05-10T13:48:34Z</time>
      </trkpt>
      <trkpt lat="43.61192" lon="5.46815">
        <ele>455</ele>
        <time>2022-05-10T13:48:54Z</time>
      </trkpt>
      <trkpt lat="43.61176" lon="5.46822">
        <ele>458</ele>
        <time>2022-05-10T13:49:14Z</time>
      </trkpt>
      <trkpt lat="43.61157" lon="5.46826">
        <ele>459</ele>
        <time>2022-05-10T13:49:34Z</time>
      </trkpt>
      <trkpt lat="43.61138" lon="5.46819">
        <ele>460</ele>
        <time>2022-05-10T13:49:55Z</time>
      </trkpt>
      <trkpt lat="43.6113" lon="5.46807">
        <ele>459</ele>
        <time>2022-05-10T13:50:16Z</time>
      </trkpt>
    </trkseg>
  </trk>
</gpx>